Terminal Aerodrome Forecast
Issued by NWS

Home | Current Version | Previous Version | Graphics & Text | Print | Product List | Glossary On
Versions: 1 2 3 4 5 6 7 8 9 10 11 12 13 14 15 16 17 18 19 20 21 22
000
FTUS43 KICT 180500
TAFSLN
TAF
KSLN 180520Z 1806/1906 08008KT P6SM FEW070 SCT150
     FM180700 09008KT P6SM VCTS SCT008 BKN060CB
     FM181000 10008KT 3SM BR OVC007
     FM181500 12008KT P6SM OVC015
     FM181800 13008KT P6SM FEW040
     FM190100 13009KT P6SM SCT150=

USA.gov is the U.S. government's official web portal to all federal, state and local government web resources and services.